sensor_id;sensor_type;location;lat;lon;timestamp;pressure;altitude;pressure_sealevel;temperature;humidity
8047;BME280;67150;42.516;23.358;2023-08-12T00:01:18;89091.94;;;17.38;61.02
8047;BME280;67150;42.516;23.358;2023-08-12T00:03:47;89086.84;;;17.38;60.88
8047;BME280;67150;42.516;23.358;2023-08-12T00:06:14;89082.69;;;17.37;61.17
8047;BME280;67150;42.516;23.358;2023-08-12T00:08:41;89085.25;;;17.37;60.98
8047;BME280;67150;42.516;23.358;2023-08-12T00:11:09;89086.06;;;17.38;61.01
8047;BME280;67150;42.516;23.358;2023-08-12T00:13:36;89089.66;;;17.35;60.92
8047;BME280;67150;42.516;23.358;2023-08-12T00:16:03;89088.06;;;17.34;61.10
8047;BME280;67150;42.516;23.358;2023-08-12T00:18:33;89085.53;;;17.34;60.93
8047;BME280;67150;42.516;23.358;2023-08-12T00:21:06;89081.22;;;17.34;60.81
8047;BME280;67150;42.516;23.358;2023-08-12T00:23:39;89078.00;;;17.32;60.91
8047;BME280;67150;42.516;23.358;2023-08-12T00:26:07;89072.78;;;17.34;60.72
8047;BME280;67150;42.516;23.358;2023-08-12T00:28:34;89075.44;;;17.32;60.94
8047;BME280;67150;42.516;23.358;2023-08-12T00:31:01;89077.19;;;17.32;60.86
8047;BME280;67150;42.516;23.358;2023-08-12T00:33:29;89072.34;;;17.29;60.77
8047;BME280;67150;42.516;23.358;2023-08-12T00:35:58;89073.72;;;17.33;60.64
8047;BME280;67150;42.516;23.358;2023-08-12T00:38:25;89072.34;;;17.29;60.68
8047;BME280;67150;42.516;23.358;2023-08-12T00:40:53;89079.72;;;17.32;60.73
8047;BME280;67150;42.516;23.358;2023-08-12T00:43:20;89067.84;;;17.23;60.76
8047;BME280;67150;42.516;23.358;2023-08-12T00:45:47;89070.50;;;17.31;60.64
8047;BME280;67150;42.516;23.358;2023-08-12T00:48:16;89075.44;;;17.32;60.65
8047;BME280;67150;42.516;23.358;2023-08-12T00:50:45;89076.41;;;17.31;60.69
8047;BME280;67150;42.516;23.358;2023-08-12T00:53:15;89072.09;;;17.32;60.49
8047;BME280;67150;42.516;23.358;2023-08-12T00:55:43;89073.97;;;17.30;60.64
8047;BME280;67150;42.516;23.358;2023-08-12T00:58:10;89071.31;;;17.31;60.53
8047;BME280;67150;42.516;23.358;2023-08-12T01:00:38;89069.53;;;17.32;60.49
8047;BME280;67150;42.516;23.358;2023-08-12T01:03:05;89067.97;;;17.31;60.49
8047;BME280;67150;42.516;23.358;2023-08-12T01:05:33;89068.88;;;17.30;60.53
8047;BME280;67150;42.516;23.358;2023-08-12T01:08:01;89063.78;;;17.30;60.24
8047;BME280;67150;42.516;23.358;2023-08-12T01:10:35;89066.22;;;17.31;60.45
8047;BME280;67150;42.516;23.358;2023-08-12T01:13:11;89064.44;;;17.32;60.27
8047;BME280;67150;42.516;23.358;2023-08-12T01:15:42;89060.31;;;17.31;60.14
8047;BME280;67150;42.516;23.358;2023-08-12T01:18:11;89056.16;;;17.30;60.28
8047;BME280;67150;42.516;23.358;2023-08-12T01:20:40;89051.22;;;17.28;60.43
8047;BME280;67150;42.516;23.358;2023-08-12T01:23:10;89055.34;;;17.29;60.45
8047;BME280;67150;42.516;23.358;2023-08-12T01:25:39;89057.22;;;17.27;60.45
8047;BME280;67150;42.516;23.358;2023-08-12T01:28:06;89049.75;;;17.26;60.40
8047;BME280;67150;42.516;23.358;2023-08-12T01:30:36;89047.19;;;17.26;60.48
8047;BME280;67150;42.516;23.358;2023-08-12T01:33:09;89049.84;;;17.24;60.49
8047;BME280;67150;42.516;23.358;2023-08-12T01:35:42;89050.78;;;17.23;60.48
8047;BME280;67150;42.516;23.358;2023-08-12T01:38:13;89039.81;;;17.23;60.27
8047;BME280;67150;42.516;23.358;2023-08-12T01:40:42;89040.75;;;17.22;60.47
8047;BME280;67150;42.516;23.358;2023-08-12T01:43:10;89049.19;;;17.22;60.20
8047;BME280;67150;42.516;23.358;2023-08-12T01:45:37;89042.38;;;17.23;60.28
8047;BME280;67150;42.516;23.358;2023-08-12T01:48:06;89040.75;;;17.22;60.38
8047;BME280;67150;42.516;23.358;2023-08-12T01:50:33;89041.56;;;17.22;60.29
8047;BME280;67150;42.516;23.358;2023-08-12T01:53:00;89040.75;;;17.22;60.26
8047;BME280;67150;42.516;23.358;2023-08-12T01:55:29;89029.63;;;17.13;60.22
8047;BME280;67150;42.516;23.358;2023-08-12T01:57:56;89045.69;;;17.23;60.12
8047;BME280;67150;42.516;23.358;2023-08-12T02:00:24;89040.75;;;17.22;60.20
8047;BME280;67150;42.516;23.358;2023-08-12T02:02:51;89038.31;;;17.20;60.27
8047;BME280;67150;42.516;23.358;2023-08-12T02:05:18;89043.28;;;17.22;60.06
8047;BME280;67150;42.516;23.358;2023-08-12T02:07:45;89040.59;;;17.23;59.90
8047;BME280;67150;42.516;23.358;2023-08-12T02:10:13;89037.28;;;17.23;60.00
8047;BME280;67150;42.516;23.358;2023-08-12T02:12:42;89041.69;;;17.21;60.00
8047;BME280;67150;42.516;23.358;2023-08-12T02:15:10;89043.41;;;17.20;60.17
8047;BME280;67150;42.516;23.358;2023-08-12T02:17:38;89038.31;;;17.20;60.14
8047;BME280;67150;42.516;23.358;2023-08-12T02:20:06;89045.97;;;17.20;60.19
8047;BME280;67150;42.516;23.358;2023-08-12T02:22:34;89044.22;;;17.21;60.04
8047;BME280;67150;42.516;23.358;2023-08-12T02:25:01;89041.81;;;17.19;60.20
8047;BME280;67150;42.516;23.358;2023-08-12T02:27:29;89045.97;;;17.20;60.11
8047;BME280;67150;42.516;23.358;2023-08-12T02:29:57;89042.75;;;17.18;60.22
8047;BME280;67150;42.516;23.358;2023-08-12T02:32:25;89050.28;;;17.20;59.96
8047;BME280;67150;42.516;23.358;2023-08-12T02:34:52;89051.19;;;17.19;59.93
8047;BME280;67150;42.516;23.358;2023-08-12T02:37:19;89051.47;;;17.16;60.09
8047;BME280;67150;42.516;23.358;2023-08-12T02:39:47;89046.38;;;17.16;60.03
8047;BME280;67150;42.516;23.358;2023-08-12T02:42:14;89054.94;;;17.15;60.03
8047;BME280;67150;42.516;23.358;2023-08-12T02:44:41;89058.44;;;17.14;60.19
8047;BME280;67150;42.516;23.358;2023-08-12T02:47:10;89058.44;;;17.14;60.36
8047;BME280;67150;42.516;23.358;2023-08-12T02:49:37;89048.78;;;17.08;60.13
8047;BME280;67150;42.516;23.358;2023-08-12T02:52:05;89060.84;;;17.15;60.20
8047;BME280;67150;42.516;23.358;2023-08-12T02:54:32;89065.81;;;17.17;60.09
8047;BME280;67150;42.516;23.358;2023-08-12T02:56:59;89066.59;;;17.17;60.06
8047;BME280;67150;42.516;23.358;2023-08-12T02:59:27;89065.81;;;17.17;59.95
8047;BME280;67150;42.516;23.358;2023-08-12T03:01:55;89058.56;;;17.12;60.06
8047;BME280;67150;42.516;23.358;2023-08-12T03:04:24;89067.41;;;17.18;59.99
8047;BME280;67150;42.516;23.358;2023-08-12T03:06:51;89066.09;;;17.14;60.14
8047;BME280;67150;42.516;23.358;2023-08-12T03:09:19;89072.09;;;17.13;59.99
8047;BME280;67150;42.516;23.358;2023-08-12T03:11:46;89067.00;;;17.13;60.13
8047;BME280;67150;42.516;23.358;2023-08-12T03:14:13;89068.09;;;17.10;60.05
8047;BME280;67150;42.516;23.358;2023-08-12T03:16:41;89073.03;;;17.12;60.03
8047;BME280;67150;42.516;23.358;2023-08-12T03:19:08;89068.09;;;17.10;59.99
8047;BME280;67150;42.516;23.358;2023-08-12T03:21:36;89070.63;;;17.10;60.03
8047;BME280;67150;42.516;23.358;2023-08-12T03:24:05;89024.13;;;16.79;60.02
8047;BME280;67150;42.516;23.358;2023-08-12T03:26:32;89069.00;;;17.09;59.87
8047;BME280;67150;42.516;23.358;2023-08-12T03:28:59;89055.75;;;17.06;60.15
8047;BME280;67150;42.516;23.358;2023-08-12T03:31:27;89066.22;;;17.12;59.92
8047;BME280;67150;42.516;23.358;2023-08-12T03:33:54;89074.81;;;17.11;59.97
8047;BME280;67150;42.516;23.358;2023-08-12T03:36:33;89067.28;;;17.10;60.10
8047;BME280;67150;42.516;23.358;2023-08-12T03:39:02;89074.25;;;17.08;60.23
8047;BME280;67150;42.516;23.358;2023-08-12T03:41:29;89065.66;;;17.09;60.38
8047;BME280;67150;42.516;23.358;2023-08-12T03:43:57;89071.44;;;17.11;60.03
8047;BME280;67150;42.516;23.358;2023-08-12T03:46:24;89076.66;;;17.09;60.20
8047;BME280;67150;42.516;23.358;2023-08-12T03:48:51;89070.63;;;17.10;60.09
8047;BME280;67150;42.516;23.358;2023-08-12T03:51:19;89069.16;;;17.08;60.23
8047;BME280;67150;42.516;23.358;2023-08-12T03:53:46;89072.63;;;17.07;60.40
8047;BME280;67150;42.516;23.358;2023-08-12T03:56:15;89074.38;;;17.06;60.31
8047;BME280;67150;42.516;23.358;2023-08-12T03:58:42;89069.16;;;17.08;60.37
8047;BME280;67150;42.516;23.358;2023-08-12T04:01:09;89033.91;;;16.84;60.37
8047;BME280;67150;42.516;23.358;2023-08-12T04:03:37;89065.16;;;17.05;60.33
8047;BME280;67150;42.516;23.358;2023-08-12T04:06:04;89065.94;;;17.06;60.35
8047;BME280;67150;42.516;23.358;2023-08-12T04:08:31;89062.72;;;17.04;60.38
8047;BME280;67150;42.516;23.358;2023-08-12T04:11:00;89069.69;;;17.02;60.28
8047;BME280;67150;42.516;23.358;2023-08-12T04:13:29;89066.72;;;17.06;60.41
8047;BME280;67150;42.516;23.358;2023-08-12T04:15:56;89052.00;;;16.91;60.42
8047;BME280;67150;42.516;23.358;2023-08-12T04:18:24;89076.81;;;17.08;60.45
8047;BME280;67150;42.516;23.358;2023-08-12T04:20:53;89068.47;;;17.06;60.46
8047;BME280;67150;42.516;23.358;2023-08-12T04:23:20;89069.56;;;17.03;60.46
8047;BME280;67150;42.516;23.358;2023-08-12T04:25:48;89063.50;;;16.95;60.47
8047;BME280;67150;42.516;23.358;2023-08-12T04:28:16;89068.75;;;17.03;60.44
8047;BME280;67150;42.516;23.358;2023-08-12T04:30:46;89068.47;;;17.06;60.58
8047;BME280;67150;42.516;23.358;2023-08-12T04:33:14;89066.72;;;17.06;60.42
8047;BME280;67150;42.516;23.358;2023-08-12T04:35:41;89074.25;;;17.08;60.61
8047;BME280;67150;42.516;23.358;2023-08-12T04:38:09;89070.25;;;17.05;60.81
8047;BME280;67150;42.516;23.358;2023-08-12T04:40:38;89072.91;;;17.04;60.81
8047;BME280;67150;42.516;23.358;2023-08-12T04:43:07;89067.69;;;17.05;60.80
8047;BME280;67150;42.516;23.358;2023-08-12T04:45:35;89066.88;;;17.05;60.74
8047;BME280;67150;42.516;23.358;2023-08-12T04:48:05;89069.44;;;17.05;60.83
8047;BME280;67150;42.516;23.358;2023-08-12T04:50:32;89066.88;;;17.05;60.80
8047;BME280;67150;42.516;23.358;2023-08-12T04:53:00;89068.06;;;17.01;61.10
8047;BME280;67150;42.516;23.358;2023-08-12T04:55:28;89082.16;;;17.05;60.74
8047;BME280;67150;42.516;23.358;2023-08-12T04:57:55;89074.53;;;17.05;61.20
8047;BME280;67150;42.516;23.358;2023-08-12T05:00:22;89078.66;;;17.06;61.07
8047;BME280;67150;42.516;23.358;2023-08-12T05:02:50;89076.91;;;17.06;60.97
8047;BME280;67150;42.516;23.358;2023-08-12T05:05:19;89076.13;;;17.06;61.34
8047;BME280;67150;42.516;23.358;2023-08-12T05:07:46;89064.72;;;17.00;61.64
8047;BME280;67150;42.516;23.358;2023-08-12T05:10:15;89078.81;;;17.04;61.49
8047;BME280;67150;42.516;23.358;2023-08-12T05:12:42;89078.00;;;17.04;61.60
8047;BME280;67150;42.516;23.358;2023-08-12T05:15:10;89080.41;;;17.05;61.27
8047;BME280;67150;42.516;23.358;2023-08-12T05:17:37;89077.72;;;17.07;61.20
8047;BME280;67150;42.516;23.358;2023-08-12T05:20:06;89077.88;;;17.05;61.52
8047;BME280;67150;42.516;23.358;2023-08-12T05:22:35;89077.88;;;17.05;61.33
8047;BME280;67150;42.516;23.358;2023-08-12T05:25:03;89075.34;;;17.05;61.25
8047;BME280;67150;42.516;23.358;2023-08-12T05:27:31;89084.56;;;17.06;61.49
8047;BME280;67150;42.516;23.358;2023-08-12T05:29:58;89081.19;;;17.06;61.59
8047;BME280;67150;42.516;23.358;2023-08-12T05:32:25;89087.00;;;17.08;61.29
8047;BME280;67150;42.516;23.358;2023-08-12T05:34:53;89085.66;;;17.13;61.11
8047;BME280;67150;42.516;23.358;2023-08-12T05:37:20;89090.06;;;17.21;61.02
8047;BME280;67150;42.516;23.358;2023-08-12T05:39:49;89088.06;;;17.24;60.99
8047;BME280;67150;42.516;23.358;2023-08-12T05:42:16;89086.06;;;17.28;60.98
8047;BME280;67150;42.516;23.358;2023-08-12T05:44:44;89089.25;;;17.30;60.90
8047;BME280;67150;42.516;23.358;2023-08-12T05:47:11;89082.97;;;17.24;61.06
8047;BME280;67150;42.516;23.358;2023-08-12T05:49:38;89089.16;;;17.31;61.24
8047;BME280;67150;42.516;23.358;2023-08-12T05:52:06;89084.44;;;17.36;61.18
8047;BME280;67150;42.516;23.358;2023-08-12T05:54:33;89085.53;;;17.34;60.93
8047;BME280;67150;42.516;23.358;2023-08-12T05:57:02;89089.38;;;17.38;61.06
8047;BME280;67150;42.516;23.358;2023-08-12T05:59:29;89083.09;;;17.42;61.07
8047;BME280;67150;42.516;23.358;2023-08-12T06:01:57;89088.84;;;17.44;61.03
8047;BME280;67150;42.516;23.358;2023-08-12T06:04:24;89080.94;;;17.47;60.71
8047;BME280;67150;42.516;23.358;2023-08-12T06:06:51;89087.66;;;17.48;61.00
8047;BME280;67150;42.516;23.358;2023-08-12T06:09:19;89084.84;;;17.51;60.97
8047;BME280;67150;42.516;23.358;2023-08-12T06:11:47;89087.38;;;17.51;61.16
8047;BME280;67150;42.516;23.358;2023-08-12T06:14:16;89083.91;;;17.52;61.08
8047;BME280;67150;42.516;23.358;2023-08-12T06:16:43;89087.81;;;17.56;61.12
8047;BME280;67150;42.516;23.358;2023-08-12T06:19:10;89087.53;;;17.59;61.13
8047;BME280;67150;42.516;23.358;2023-08-12T06:21:38;89087.69;;;17.58;61.20
8047;BME280;67150;42.516;23.358;2023-08-12T06:24:05;89081.63;;;17.59;61.07
8047;BME280;67150;42.516;23.358;2023-08-12T06:26:33;89083.09;;;17.61;61.07
8047;BME280;67150;42.516;23.358;2023-08-12T06:29:00;89088.88;;;17.63;61.28
8047;BME280;67150;42.516;23.358;2023-08-12T06:31:29;89075.19;;;17.64;61.24
8047;BME280;67150;42.516;23.358;2023-08-12T06:33:56;89075.06;;;17.66;61.22
8047;BME280;67150;42.516;23.358;2023-08-12T06:36:23;89077.72;;;17.64;61.28
8047;BME280;67150;42.516;23.358;2023-08-12T06:38:51;89077.34;;;17.69;61.15
8047;BME280;67150;42.516;23.358;2023-08-12T06:41:18;89075.31;;;17.72;61.05
8047;BME280;67150;42.516;23.358;2023-08-12T06:43:45;89079.59;;;17.72;61.35
8047;BME280;67150;42.516;23.358;2023-08-12T06:46:13;89079.19;;;17.76;61.05
8047;BME280;67150;42.516;23.358;2023-08-12T06:48:41;89064.88;;;17.66;61.14
8047;BME280;67150;42.516;23.358;2023-08-12T06:51:09;89066.88;;;17.72;61.06
8047;BME280;67150;42.516;23.358;2023-08-12T06:53:37;89081.47;;;17.79;60.93
8047;BME280;67150;42.516;23.358;2023-08-12T06:56:05;89080.66;;;17.79;60.72
8047;BME280;67150;42.516;23.358;2023-08-12T06:58:32;89079.31;;;17.84;60.78
8047;BME280;67150;42.516;23.358;2023-08-12T07:01:00;89077.72;;;17.83;60.84
8047;BME280;67150;42.516;23.358;2023-08-12T07:03:27;89081.59;;;17.87;60.82
8047;BME280;67150;42.516;23.358;2023-08-12T07:05:56;89083.34;;;17.87;60.63
8047;BME280;67150;42.516;23.358;2023-08-12T07:08:23;89080.38;;;17.91;60.88
8047;BME280;67150;42.516;23.358;2023-08-12T07:10:50;89072.19;;;17.88;60.74
8047;BME280;67150;42.516;23.358;2023-08-12T07:13:18;89084.81;;;17.89;60.67
8047;BME280;67150;42.516;23.358;2023-08-12T07:15:45;89079.72;;;17.89;60.84
8047;BME280;67150;42.516;23.358;2023-08-12T07:18:12;89080.38;;;17.91;60.91
8047;BME280;67150;42.516;23.358;2023-08-12T07:20:39;89083.06;;;17.90;60.77
8047;BME280;67150;42.516;23.358;2023-08-12T07:23:08;89078.78;;;17.90;60.61
8047;BME280;67150;42.516;23.358;2023-08-12T07:25:35;89077.69;;;17.93;60.65
8047;BME280;67150;42.516;23.358;2023-08-12T07:28:03;89083.03;;;18.00;60.50
8047;BME280;67150;42.516;23.358;2023-08-12T07:30:30;89078.59;;;18.02;60.43
8047;BME280;67150;42.516;23.358;2023-08-12T07:32:58;89082.75;;;18.03;60.33
8047;BME280;67150;42.516;23.358;2023-08-12T07:35:25;89081.69;;;18.05;60.51
8047;BME280;67150;42.516;23.358;2023-08-12T07:37:52;89071.75;;;18.02;60.38
8047;BME280;67150;42.516;23.358;2023-08-12T07:40:21;89077.53;;;18.04;60.51
8047;BME280;67150;42.516;23.358;2023-08-12T07:42:49;89071.50;;;18.05;60.57
8047;BME280;67150;42.516;23.358;2023-08-12T07:45:16;89072.44;;;18.04;60.42
8047;BME280;67150;42.516;23.358;2023-08-12T07:47:43;89077.78;;;18.11;60.38
8047;BME280;67150;42.516;23.358;2023-08-12T07:50:11;89071.34;;;18.07;60.33
8047;BME280;67150;42.516;23.358;2023-08-12T07:52:38;89067.31;;;18.04;60.52
8047;BME280;67150;42.516;23.358;2023-08-12T07:55:06;89081.53;;;18.07;60.26
8047;BME280;67150;42.516;23.358;2023-08-12T07:57:35;89077.63;;;18.12;60.41
8047;BME280;67150;42.516;23.358;2023-08-12T08:00:03;89066.63;;;18.12;60.31
8047;BME280;67150;42.516;23.358;2023-08-12T08:02:30;89070.34;;;18.17;60.06
8047;BME280;67150;42.516;23.358;2023-08-12T08:04:58;89075.31;;;18.19;60.20
8047;BME280;67150;42.516;23.358;2023-08-12T08:07:25;89070.34;;;18.17;60.53
8047;BME280;67150;42.516;23.358;2023-08-12T08:09:55;89076.13;;;18.19;60.27
8047;BME280;67150;42.516;23.358;2023-08-12T08:12:22;89081.38;;;18.18;60.52
8047;BME280;67150;42.516;23.358;2023-08-12T08:14:51;89081.78;;;18.23;60.47
8047;BME280;67150;42.516;23.358;2023-08-12T08:17:18;89073.31;;;18.22;60.32
8047;BME280;67150;42.516;23.358;2023-08-12T08:19:45;89081.47;;;18.26;60.32
8047;BME280;67150;42.516;23.358;2023-08-12T08:22:13;89083.91;;;18.18;60.98
8047;BME280;67150;42.516;23.358;2023-08-12T08:24:40;89078.25;;;18.24;60.67
8047;BME280;67150;42.516;23.358;2023-08-12T08:27:07;89084.53;;;18.29;60.80
8047;BME280;67150;42.516;23.358;2023-08-12T08:29:35;89077.31;;;18.25;60.85
8047;BME280;67150;42.516;23.358;2023-08-12T08:32:04;89084.41;;;18.31;60.56
8047;BME280;67150;42.516;23.358;2023-08-12T08:34:31;89083.72;;;18.29;60.44
8047;BME280;67150;42.516;23.358;2023-08-12T08:36:58;89060.16;;;18.17;60.32
8047;BME280;67150;42.516;23.358;2023-08-12T08:39:26;89068.59;;;18.27;60.24
8047;BME280;67150;42.516;23.358;2023-08-12T08:41:54;89084.00;;;18.26;60.39
8047;BME280;67150;42.516;23.358;2023-08-12T08:44:22;89078.06;;;18.35;60.16
8047;BME280;67150;42.516;23.358;2023-08-12T08:46:52;89081.44;;;18.35;60.30
8047;BME280;67150;42.516;23.358;2023-08-12T08:49:22;89074.75;;;18.34;60.59
8047;BME280;67150;42.516;23.358;2023-08-12T08:51:50;89072.97;;;18.35;60.03
8047;BME280;67150;42.516;23.358;2023-08-12T08:54:18;89078.88;;;18.35;59.91
8047;BME280;67150;42.516;23.358;2023-08-12T08:56:46;89075.53;;;18.35;59.86
8047;BME280;67150;42.516;23.358;2023-08-12T08:59:15;89079.84;;;18.34;59.87
8047;BME280;67150;42.516;23.358;2023-08-12T09:01:43;89071.09;;;18.37;59.67
8047;BME280;67150;42.516;23.358;2023-08-12T09:04:14;89071.47;;;18.42;59.40
8047;BME280;67150;42.516;23.358;2023-08-12T09:06:44;89067.38;;;18.31;59.98
8047;BME280;67150;42.516;23.358;2023-08-12T09:09:14;89067.47;;;18.39;59.60
8047;BME280;67150;42.516;23.358;2023-08-12T09:11:43;89050.97;;;18.34;59.47
8047;BME280;67150;42.516;23.358;2023-08-12T09:14:11;89057.91;;;18.41;59.43
8047;BME280;67150;42.516;23.358;2023-08-12T09:16:39;89061.00;;;18.45;59.33
8047;BME280;67150;42.516;23.358;2023-08-12T09:19:06;89061.91;;;18.44;59.32
8047;BME280;67150;42.516;23.358;2023-08-12T09:21:33;89064.34;;;18.45;59.21
8047;BME280;67150;42.516;23.358;2023-08-12T09:24:04;89065.16;;;18.46;59.51
8047;BME280;67150;42.516;23.358;2023-08-12T09:26:32;89051.44;;;18.47;59.23
8047;BME280;67150;42.516;23.358;2023-08-12T09:28:59;89056.53;;;18.47;59.32
8047;BME280;67150;42.516;23.358;2023-08-12T09:31:28;89057.50;;;18.46;59.36
8047;BME280;67150;42.516;23.358;2023-08-12T09:33:58;89049.16;;;18.44;59.42
8047;BME280;67150;42.516;23.358;2023-08-12T09:36:28;89056.00;;;18.43;59.67
8047;BME280;67150;42.516;23.358;2023-08-12T09:38:56;89049.59;;;18.49;59.21
8047;BME280;67150;42.516;23.358;2023-08-12T09:41:27;89042.75;;;18.40;60.02
8047;BME280;67150;42.516;23.358;2023-08-12T09:43:55;89043.69;;;18.39;60.14
8047;BME280;67150;42.516;23.358;2023-08-12T09:46:26;89044.22;;;18.42;59.67
8047;BME280;67150;42.516;23.358;2023-08-12T09:48:53;89050.63;;;18.46;59.32
8047;BME280;67150;42.516;23.358;2023-08-12T09:51:21;89047.94;;;18.48;59.68
8047;BME280;67150;42.516;23.358;2023-08-12T09:53:48;89048.50;;;18.42;61.21
8047;BME280;67150;42.516;23.358;2023-08-12T09:56:18;89032.69;;;18.38;59.62
8047;BME280;67150;42.516;23.358;2023-08-12T09:58:49;89040.16;;;18.50;59.57
8047;BME280;67150;42.516;23.358;2023-08-12T10:01:18;89045.78;;;18.53;59.47
8047;BME280;67150;42.516;23.358;2023-08-12T10:03:48;89041.94;;;18.49;59.81
8047;BME280;67150;42.516;23.358;2023-08-12T10:06:17;89043.13;;;18.45;60.45
8047;BME280;67150;42.516;23.358;2023-08-12T10:08:45;89033.47;;;18.49;59.39
8047;BME280;67150;42.516;23.358;2023-08-12T10:11:12;89042.84;;;18.48;59.53
8047;BME280;67150;42.516;23.358;2023-08-12T10:13:40;89032.38;;;18.51;59.24
8047;BME280;67150;42.516;23.358;2023-08-12T10:16:09;89040.16;;;18.50;59.97
8047;BME280;67150;42.516;23.358;2023-08-12T10:18:38;89024.72;;;18.51;60.02
8047;BME280;67150;42.516;23.358;2023-08-12T10:21:09;89032.38;;;18.51;59.56
8047;BME280;67150;42.516;23.358;2023-08-12T10:23:37;89024.34;;;18.46;59.58
8047;BME280;67150;42.516;23.358;2023-08-12T10:26:06;89036.56;;;18.52;59.80
8047;BME280;67150;42.516;23.358;2023-08-12T10:28:34;89027.81;;;18.55;59.29
8047;BME280;67150;42.516;23.358;2023-08-12T10:31:04;89026.34;;;18.52;60.75
8047;BME280;67150;42.516;23.358;2023-08-12T10:33:36;89033.19;;;18.52;60.38
8047;BME280;67150;42.516;23.358;2023-08-12T10:36:04;89028.09;;;18.52;59.88
8047;BME280;67150;42.516;23.358;2023-08-12T10:38:33;89019.47;;;18.53;59.65
8047;BME280;67150;42.516;23.358;2023-08-12T10:41:16;89014.06;;;18.56;59.90
8047;BME280;67150;42.516;23.358;2023-08-12T10:43:54;89010.06;;;18.53;59.39
8047;BME280;67150;42.516;23.358;2023-08-12T10:49:07;88975.13;;;18.26;60.09
8047;BME280;67150;42.516;23.358;2023-08-12T10:51:45;89020.00;;;18.56;60.72
8047;BME280;67150;42.516;23.358;2023-08-12T10:54:17;89013.78;;;18.59;59.88
8047;BME280;67150;42.516;23.358;2023-08-12T10:57:09;89011.75;;;18.62;58.93
8047;BME280;67150;42.516;23.358;2023-08-12T10:59:54;89008.41;;;18.62;59.94
8047;BME280;67150;42.516;23.358;2023-08-12T11:02:28;89003.16;;;18.63;59.34
8047;BME280;67150;42.516;23.358;2023-08-12T11:05:00;89004.09;;;18.62;59.78
8047;BME280;67150;42.516;23.358;2023-08-12T11:07:39;88999.00;;;18.62;59.62
8047;BME280;67150;42.516;23.358;2023-08-12T11:10:11;88999.00;;;18.62;59.63
8047;BME280;67150;42.516;23.358;2023-08-12T11:12:39;89012.56;;;18.63;59.31
8047;BME280;67150;42.516;23.358;2023-08-12T11:15:08;89008.41;;;18.62;59.32
8047;BME280;67150;42.516;23.358;2023-08-12T11:17:38;89005.44;;;18.66;58.65
8047;BME280;67150;42.516;23.358;2023-08-12T11:20:08;88981.88;;;18.55;59.06
8047;BME280;67150;42.516;23.358;2023-08-12T11:22:37;89001.72;;;18.61;59.34
8047;BME280;67150;42.516;23.358;2023-08-12T11:25:06;88994.94;;;18.69;58.65
8047;BME280;67150;42.516;23.358;2023-08-12T11:27:41;88993.31;;;18.68;58.58
8047;BME280;67150;42.516;23.358;2023-08-12T11:30:11;88992.50;;;18.68;58.97
8047;BME280;67150;42.516;23.358;2023-08-12T11:32:39;88991.41;;;18.70;58.10
8047;BME280;67150;42.516;23.358;2023-08-12T11:35:09;88992.22;;;18.71;58.40
8047;BME280;67150;42.516;23.358;2023-08-12T11:37:38;88991.41;;;18.70;57.93
8047;BME280;67150;42.516;23.358;2023-08-12T11:40:08;88995.47;;;18.73;58.13
8047;BME280;67150;42.516;23.358;2023-08-12T11:42:36;88992.59;;;18.76;57.91
8047;BME280;67150;42.516;23.358;2023-08-12T11:45:03;88991.13;;;18.73;57.90
8047;BME280;67150;42.516;23.358;2023-08-12T11:47:31;88992.47;;;18.77;57.25
8047;BME280;67150;42.516;23.358;2023-08-12T11:49:58;88982.81;;;18.71;57.34
8047;BME280;67150;42.516;23.358;2023-08-12T11:52:27;88972.09;;;18.68;57.59
8047;BME280;67150;42.516;23.358;2023-08-12T11:54:54;88986.47;;;18.69;57.48
8047;BME280;67150;42.516;23.358;2023-08-12T11:57:22;88982.19;;;18.69;57.68
8047;BME280;67150;42.516;23.358;2023-08-12T11:59:50;88985.09;;;18.74;57.32
8047;BME280;67150;42.516;23.358;2023-08-12T12:02:17;88986.72;;;18.75;57.19
8047;BME280;67150;42.516;23.358;2023-08-12T12:04:45;88979.97;;;18.74;57.43
8047;BME280;67150;42.516;23.358;2023-08-12T12:07:19;88959.78;;;18.63;57.88
8047;BME280;67150;42.516;23.358;2023-08-12T12:09:50;88981.31;;;18.78;57.42
8047;BME280;67150;42.516;23.358;2023-08-12T12:12:22;88972.97;;;18.76;57.19
8047;BME280;67150;42.516;23.358;2023-08-12T12:14:51;88943.72;;;18.53;57.12
8047;BME280;67150;42.516;23.358;2023-08-12T12:17:20;88965.47;;;18.75;56.90
8047;BME280;67150;42.516;23.358;2023-08-12T12:19:52;88976.03;;;18.80;57.09
8047;BME280;67150;42.516;23.358;2023-08-12T12:22:26;88957.53;;;18.78;57.01
8047;BME280;67150;42.516;23.358;2023-08-12T12:24:58;88979.25;;;18.82;57.44
8047;BME280;67150;42.516;23.358;2023-08-12T12:27:26;88974.81;;;18.84;57.38
8047;BME280;67150;42.516;23.358;2023-08-12T12:29:53;88972.25;;;18.84;57.18
8047;BME280;67150;42.516;23.358;2023-08-12T12:32:21;88980.84;;;18.83;56.92
8047;BME280;67150;42.516;23.358;2023-08-12T12:34:48;88971.44;;;18.83;57.02
8047;BME280;67150;42.516;23.358;2023-08-12T12:37:16;88971.22;;;18.77;57.18
8047;BME280;67150;42.516;23.358;2023-08-12T12:39:44;88966.47;;;18.82;58.40
8047;BME280;67150;42.516;23.358;2023-08-12T12:42:13;88963.78;;;18.83;58.29
8047;BME280;67150;42.516;23.358;2023-08-12T12:44:40;88946.81;;;18.74;58.47
8047;BME280;67150;42.516;23.358;2023-08-12T12:47:07;88968.91;;;18.83;58.10
8047;BME280;67150;42.516;23.358;2023-08-12T12:49:36;88966.69;;;18.88;57.84
8047;BME280;67150;42.516;23.358;2023-08-12T12:52:04;88962.69;;;18.86;57.66
8047;BME280;67150;42.516;23.358;2023-08-12T12:54:31;88956.78;;;18.85;57.72
8047;BME280;67150;42.516;23.358;2023-08-12T12:56:59;88947.03;;;18.81;57.49
8047;BME280;67150;42.516;23.358;2023-08-12T12:59:28;88932.00;;;18.78;57.56
8047;BME280;67150;42.516;23.358;2023-08-12T13:01:56;88944.38;;;18.90;57.22
8047;BME280;67150;42.516;23.358;2023-08-12T13:04:23;88945.97;;;18.91;56.66
8047;BME280;67150;42.516;23.358;2023-08-12T13:06:50;88944.25;;;18.92;56.38
8047;BME280;67150;42.516;23.358;2023-08-12T13:09:18;88950.81;;;18.94;56.69